LSGT weather

Public forecast

Using degrees Celsius for public forecast. Weather courtesy of forecast.io.

Closest aviation weather report (METAR) to Gruyeres Airport

Closest report is Payerne Air Base, 16.7 nm (30.9 km) NNW. Retrieved 2020/08/14 14:20 UTC (46 seconds ago):

LSMP 141420Z AUTO VRB02KT 9999NDV FEW034 25/17 Q1016 RMK

Closest aviation forecast (TAF) to Gruyeres Airport

Closest forecast is Payerne Air Base, 16.7 nm (30.9 km) NNW. Retrieved 2020/08/14 10:00 UTC (4 hours ago):

TAF LSMP 140925Z 1410/1516 21004KT 9999 BKN050 PROB30 TEMPO 1410/1412 SHRA